sensor_id;sensor_type;location;lat;lon;timestamp;pressure;altitude;pressure_sealevel;temperature;humidity
71716;BME280;59568;52.128;5.434;2023-03-14T00:00:51;98988.72;;;8.64;98.66
71716;BME280;59568;52.128;5.434;2023-03-14T00:03:17;98997.03;;;8.57;98.95
71716;BME280;59568;52.128;5.434;2023-03-14T00:05:44;98992.31;;;8.51;99.17
71716;BME280;59568;52.128;5.434;2023-03-14T00:08:11;98998.59;;;8.50;99.47
71716;BME280;59568;52.128;5.434;2023-03-14T00:10:38;99008.13;;;8.46;99.82
71716;BME280;59568;52.128;5.434;2023-03-14T00:13:05;98989.59;;;8.47;99.78
71716;BME280;59568;52.128;5.434;2023-03-14T00:15:33;99007.31;;;8.54;100.00
71716;BME280;59568;52.128;5.434;2023-03-14T00:18:01;98996.25;;;8.57;99.97
71716;BME280;59568;52.128;5.434;2023-03-14T00:20:27;98987.69;;;8.56;99.85
71716;BME280;59568;52.128;5.434;2023-03-14T00:22:54;98980.63;;;8.57;99.93
71716;BME280;59568;52.128;5.434;2023-03-14T00:25:21;98991.31;;;8.64;99.88
71716;BME280;59568;52.128;5.434;2023-03-14T00:27:50;98988.09;;;8.67;99.41
71716;BME280;59568;52.128;5.434;2023-03-14T00:30:17;98988.19;;;8.71;99.11
71716;BME280;59568;52.128;5.434;2023-03-14T00:32:44;98990.78;;;8.71;98.45
71716;BME280;59568;52.128;5.434;2023-03-14T00:35:11;98999.69;;;8.70;98.29
71716;BME280;59568;52.128;5.434;2023-03-14T00:37:38;98982.22;;;8.70;97.81
71716;BME280;59568;52.128;5.434;2023-03-14T00:40:05;99001.66;;;8.73;97.14
71716;BME280;59568;52.128;5.434;2023-03-14T00:42:33;98999.38;;;8.71;97.05
71716;BME280;59568;52.128;5.434;2023-03-14T00:45:00;99007.97;;;8.72;96.63
71716;BME280;59568;52.128;5.434;2023-03-14T00:47:27;99008.13;;;8.67;96.43
71716;BME280;59568;52.128;5.434;2023-03-14T00:49:53;99000.75;;;8.69;96.48
71716;BME280;59568;52.128;5.434;2023-03-14T00:52:20;98998.28;;;8.72;96.11
71716;BME280;59568;52.128;5.434;2023-03-14T00:54:46;99003.94;;;8.74;95.47
71716;BME280;59568;52.128;5.434;2023-03-14T00:57:13;99004.72;;;8.75;95.22
71716;BME280;59568;52.128;5.434;2023-03-14T00:59:40;99002.88;;;8.75;94.93
71716;BME280;59568;52.128;5.434;2023-03-14T01:02:06;99005.50;;;8.75;94.81
71716;BME280;59568;52.128;5.434;2023-03-14T01:04:33;99003.94;;;8.74;94.81
71716;BME280;59568;52.128;5.434;2023-03-14T01:07:01;99008.53;;;8.77;94.16
71716;BME280;59568;52.128;5.434;2023-03-14T01:09:27;99014.50;;;8.78;94.02
71716;BME280;59568;52.128;5.434;2023-03-14T01:11:54;99021.13;;;8.75;94.11
71716;BME280;59568;52.128;5.434;2023-03-14T01:14:20;99018.06;;;8.73;94.34
71716;BME280;59568;52.128;5.434;2023-03-14T01:16:47;99022.38;;;8.69;94.82
71716;BME280;59568;52.128;5.434;2023-03-14T01:19:15;99028.50;;;8.65;95.12
71716;BME280;59568;52.128;5.434;2023-03-14T01:21:41;99030.97;;;8.61;95.56
71716;BME280;59568;52.128;5.434;2023-03-14T01:24:10;99039.75;;;8.56;96.27
71716;BME280;59568;52.128;5.434;2023-03-14T01:26:37;99041.91;;;8.54;96.59
71716;BME280;59568;52.128;5.434;2023-03-14T01:29:04;99045.47;;;8.50;96.88
71716;BME280;59568;52.128;5.434;2023-03-14T01:31:30;99031.53;;;8.46;97.34
71716;BME280;59568;52.128;5.434;2023-03-14T01:33:58;99036.91;;;8.40;97.89
71716;BME280;59568;52.128;5.434;2023-03-14T01:36:25;99037.53;;;8.37;98.49
71716;BME280;59568;52.128;5.434;2023-03-14T01:38:55;99033.25;;;8.33;99.11
71716;BME280;59568;52.128;5.434;2023-03-14T01:41:24;99030.19;;;8.31;99.37
71716;BME280;59568;52.128;5.434;2023-03-14T01:43:51;99033.13;;;8.29;99.75
71716;BME280;59568;52.128;5.434;2023-03-14T01:46:29;99031.16;;;8.26;100.00
71716;BME280;59568;52.128;5.434;2023-03-14T01:54:21;99006.38;;;8.20;100.00
71716;BME280;59568;52.128;5.434;2023-03-14T01:59:51;99001.81;;;8.17;100.00
71716;BME280;59568;52.128;5.434;2023-03-14T02:02:20;98998.00;;;8.14;100.00
71716;BME280;59568;52.128;5.434;2023-03-14T02:04:47;98989.88;;;8.16;100.00
71716;BME280;59568;52.128;5.434;2023-03-14T02:07:38;98999.53;;;8.15;100.00
71716;BME280;59568;52.128;5.434;2023-03-14T02:10:09;99003.34;;;8.18;100.00
71716;BME280;59568;52.128;5.434;2023-03-14T02:12:37;98995.84;;;8.16;100.00
71716;BME280;59568;52.128;5.434;2023-03-14T02:15:05;99000.72;;;8.18;100.00
71716;BME280;59568;52.128;5.434;2023-03-14T02:17:32;98999.66;;;8.19;100.00
71716;BME280;59568;52.128;5.434;2023-03-14T02:20:24;98999.66;;;8.19;100.00
71716;BME280;59568;52.128;5.434;2023-03-14T02:22:46;98992.94;;;8.18;100.00
71716;BME280;59568;52.128;5.434;2023-03-14T02:27:55;98986.22;;;8.17;100.00
71716;BME280;59568;52.128;5.434;2023-03-14T02:30:25;98982.53;;;8.18;100.00
71716;BME280;59568;52.128;5.434;2023-03-14T02:32:58;98975.16;;;8.20;100.00
71716;BME280;59568;52.128;5.434;2023-03-14T02:35:29;98989.25;;;8.19;99.99
71716;BME280;59568;52.128;5.434;2023-03-14T02:38:13;98985.88;;;8.18;100.00
71716;BME280;59568;52.128;5.434;2023-03-14T02:40:42;98980.66;;;8.18;100.00
71716;BME280;59568;52.128;5.434;2023-03-14T02:43:08;98987.72;;;8.18;99.88
71716;BME280;59568;52.128;5.434;2023-03-14T02:45:39;98987.72;;;8.18;99.70
71716;BME280;59568;52.128;5.434;2023-03-14T02:48:11;98974.72;;;8.18;100.00
71716;BME280;59568;52.128;5.434;2023-03-14T02:50:39;98973.97;;;8.17;100.00
71716;BME280;59568;52.128;5.434;2023-03-14T02:53:06;98970.59;;;8.17;100.00
71716;BME280;59568;52.128;5.434;2023-03-14T02:55:32;98975.47;;;8.18;100.00
71716;BME280;59568;52.128;5.434;2023-03-14T02:58:01;98964.63;;;8.16;100.00
71716;BME280;59568;52.128;5.434;2023-03-14T03:00:28;98970.91;;;8.15;100.00
71716;BME280;59568;52.128;5.434;2023-03-14T03:02:57;98961.25;;;8.16;100.00
71716;BME280;59568;52.128;5.434;2023-03-14T03:05:23;98964.63;;;8.16;100.00
71716;BME280;59568;52.128;5.434;2023-03-14T03:07:50;98953.47;;;8.16;100.00
71716;BME280;59568;52.128;5.434;2023-03-14T03:10:17;98964.31;;;8.18;100.00
71716;BME280;59568;52.128;5.434;2023-03-14T03:12:44;98957.59;;;8.17;100.00
71716;BME280;59568;52.128;5.434;2023-03-14T03:15:10;98947.50;;;8.15;100.00
71716;BME280;59568;52.128;5.434;2023-03-14T03:17:37;98939.56;;;8.12;100.00
71716;BME280;59568;52.128;5.434;2023-03-14T03:20:04;98954.06;;;8.13;100.00
71716;BME280;59568;52.128;5.434;2023-03-14T03:22:32;98955.91;;;8.12;100.00
71716;BME280;59568;52.128;5.434;2023-03-14T03:24:59;98954.06;;;8.13;100.00
71716;BME280;59568;52.128;5.434;2023-03-14T03:27:25;98932.63;;;8.16;100.00
71716;BME280;59568;52.128;5.434;2023-03-14T03:29:52;98943.03;;;8.16;100.00
71716;BME280;59568;52.128;5.434;2023-03-14T03:32:18;98937.84;;;8.16;100.00
71716;BME280;59568;52.128;5.434;2023-03-14T03:34:45;98938.94;;;8.15;100.00
71716;BME280;59568;52.128;5.434;2023-03-14T03:37:12;98949.00;;;8.16;100.00
71716;BME280;59568;52.128;5.434;2023-03-14T03:39:38;98944.69;;;8.20;100.00
71716;BME280;59568;52.128;5.434;2023-03-14T03:42:05;98938.75;;;8.20;99.95
71716;BME280;59568;52.128;5.434;2023-03-14T03:44:32;98929.44;;;8.19;99.80
71716;BME280;59568;52.128;5.434;2023-03-14T03:47:00;98915.63;;;8.18;100.00
71716;BME280;59568;52.128;5.434;2023-03-14T03:49:31;98926.38;;;8.17;99.70
71716;BME280;59568;52.128;5.434;2023-03-14T03:51:58;98925.16;;;8.14;99.41
71716;BME280;59568;52.128;5.434;2023-03-14T03:54:25;98923.63;;;8.13;99.54
71716;BME280;59568;52.128;5.434;2023-03-14T03:56:52;98922.22;;;8.16;99.49
71716;BME280;59568;52.128;5.434;2023-03-14T03:59:18;98924.09;;;8.15;99.58
71716;BME280;59568;52.128;5.434;2023-03-14T04:01:46;98921.94;;;8.17;99.28
71716;BME280;59568;52.128;5.434;2023-03-14T04:04:13;98921.63;;;8.19;99.26
71716;BME280;59568;52.128;5.434;2023-03-14T04:06:40;98932.03;;;8.19;99.11
71716;BME280;59568;52.128;5.434;2023-03-14T04:09:09;98921.72;;;8.23;99.01
71716;BME280;59568;52.128;5.434;2023-03-14T04:11:36;98930.75;;;8.25;98.97
71716;BME280;59568;52.128;5.434;2023-03-14T04:14:04;98925.56;;;8.25;98.74
71716;BME280;59568;52.128;5.434;2023-03-14T04:16:31;98926.00;;;8.27;98.83
71716;BME280;59568;52.128;5.434;2023-03-14T04:18:57;98933.47;;;8.29;98.46
71716;BME280;59568;52.128;5.434;2023-03-14T04:21:24;98935.00;;;8.30;98.55
71716;BME280;59568;52.128;5.434;2023-03-14T04:23:51;98937.41;;;8.35;98.42
71716;BME280;59568;52.128;5.434;2023-03-14T04:26:18;98933.44;;;8.37;98.35
71716;BME280;59568;52.128;5.434;2023-03-14T04:28:44;98930.84;;;8.37;98.17
71716;BME280;59568;52.128;5.434;2023-03-14T04:31:13;98931.91;;;8.36;98.15
71716;BME280;59568;52.128;5.434;2023-03-14T04:33:41;98933.25;;;8.43;97.92
71716;BME280;59568;52.128;5.434;2023-03-14T04:36:11;98932.94;;;8.44;97.31
71716;BME280;59568;52.128;5.434;2023-03-14T04:38:38;98932.19;;;8.44;97.51
71716;BME280;59568;52.128;5.434;2023-03-14T04:41:05;98935.25;;;8.46;97.37
71716;BME280;59568;52.128;5.434;2023-03-14T04:43:33;98921.13;;;8.47;97.26
71716;BME280;59568;52.128;5.434;2023-03-14T04:46:00;98917.16;;;8.49;97.19
71716;BME280;59568;52.128;5.434;2023-03-14T04:48:27;98917.91;;;8.50;96.95
71716;BME280;59568;52.128;5.434;2023-03-14T04:50:54;98918.97;;;8.49;96.76
71716;BME280;59568;52.128;5.434;2023-03-14T04:53:21;98906.41;;;8.51;96.72
71716;BME280;59568;52.128;5.434;2023-03-14T04:55:52;98911.00;;;8.54;96.76
71716;BME280;59568;52.128;5.434;2023-03-14T04:58:20;98907.28;;;8.55;96.51
71716;BME280;59568;52.128;5.434;2023-03-14T05:00:47;98909.13;;;8.54;96.70
71716;BME280;59568;52.128;5.434;2023-03-14T05:03:15;98910.34;;;8.57;96.82
71716;BME280;59568;52.128;5.434;2023-03-14T05:05:42;98902.22;;;8.58;96.50
71716;BME280;59568;52.128;5.434;2023-03-14T05:08:09;98905.13;;;8.57;96.62
71716;BME280;59568;52.128;5.434;2023-03-14T05:10:36;98906.22;;;8.56;96.45
71716;BME280;59568;52.128;5.434;2023-03-14T05:13:04;98910.34;;;8.57;96.51
71716;BME280;59568;52.128;5.434;2023-03-14T05:15:31;98907.94;;;8.52;97.10
71716;BME280;59568;52.128;5.434;2023-03-14T05:17:57;98906.75;;;8.49;97.38
71716;BME280;59568;52.128;5.434;2023-03-14T05:20:24;98903.56;;;8.44;98.29
71716;BME280;59568;52.128;5.434;2023-03-14T05:22:53;98911.97;;;8.40;98.42
71716;BME280;59568;52.128;5.434;2023-03-14T05:25:20;98895.47;;;8.36;98.88
71716;BME280;59568;52.128;5.434;2023-03-14T05:27:46;98890.47;;;8.31;99.19
71716;BME280;59568;52.128;5.434;2023-03-14T05:30:13;98894.44;;;8.29;99.89
71716;BME280;59568;52.128;5.434;2023-03-14T05:32:40;98898.00;;;8.24;100.00
71716;BME280;59568;52.128;5.434;2023-03-14T05:35:07;98893.09;;;8.23;100.00
71716;BME280;59568;52.128;5.434;2023-03-14T05:37:34;98897.88;;;8.20;100.00
71716;BME280;59568;52.128;5.434;2023-03-14T05:40:01;98887.00;;;8.18;100.00
71716;BME280;59568;52.128;5.434;2023-03-14T05:42:27;98893.75;;;8.19;100.00
71716;BME280;59568;52.128;5.434;2023-03-14T05:44:54;98884.31;;;8.15;100.00
71716;BME280;59568;52.128;5.434;2023-03-14T05:47:21;98885.38;;;8.14;100.00
71716;BME280;59568;52.128;5.434;2023-03-14T05:49:47;98887.53;;;8.12;100.00
71716;BME280;59568;52.128;5.434;2023-03-14T05:52:14;98892.28;;;8.10;100.00
71716;BME280;59568;52.128;5.434;2023-03-14T05:54:41;98892.59;;;8.08;100.00
71716;BME280;59568;52.128;5.434;2023-03-14T05:57:08;98889.22;;;8.08;100.00
71716;BME280;59568;52.128;5.434;2023-03-14T05:59:37;98885.09;;;8.07;100.00
71716;BME280;59568;52.128;5.434;2023-03-14T06:02:04;98889.84;;;8.05;100.00
71716;BME280;59568;52.128;5.434;2023-03-14T06:04:30;98885.75;;;8.04;100.00
71716;BME280;59568;52.128;5.434;2023-03-14T06:06:57;98883.91;;;8.04;100.00
71716;BME280;59568;52.128;5.434;2023-03-14T06:09:26;98888.34;;;8.04;100.00
71716;BME280;59568;52.128;5.434;2023-03-14T06:11:55;98883.13;;;8.04;100.00
71716;BME280;59568;52.128;5.434;2023-03-14T06:14:22;98882.84;;;8.05;100.00
71716;BME280;59568;52.128;5.434;2023-03-14T06:16:51;98886.50;;;8.04;100.00
71716;BME280;59568;52.128;5.434;2023-03-14T06:19:19;98886.94;;;8.06;100.00
71716;BME280;59568;52.128;5.434;2023-03-14T06:21:46;98889.22;;;8.08;100.00
71716;BME280;59568;52.128;5.434;2023-03-14T06:24:13;98886.31;;;8.09;100.00
71716;BME280;59568;52.128;5.434;2023-03-14T06:26:39;98890.88;;;8.12;100.00
71716;BME280;59568;52.128;5.434;2023-03-14T06:29:06;98896.09;;;8.12;100.00
71716;BME280;59568;52.128;5.434;2023-03-14T06:31:33;98892.41;;;8.13;100.00
71716;BME280;59568;52.128;5.434;2023-03-14T06:33:59;98905.72;;;8.12;100.00
71716;BME280;59568;52.128;5.434;2023-03-14T06:36:26;98910.94;;;8.12;100.00
71716;BME280;59568;52.128;5.434;2023-03-14T06:38:53;98927.31;;;8.12;100.00
71716;BME280;59568;52.128;5.434;2023-03-14T06:41:19;98943.34;;;8.14;100.00
71716;BME280;59568;52.128;5.434;2023-03-14T06:43:49;98966.47;;;8.16;100.00
71716;BME280;59568;52.128;5.434;2023-03-14T06:46:16;98968.63;;;8.14;100.00
71716;BME280;59568;52.128;5.434;2023-03-14T06:48:43;98985.63;;;8.11;100.00
71716;BME280;59568;52.128;5.434;2023-03-14T06:51:09;99000.78;;;8.09;100.00
71716;BME280;59568;52.128;5.434;2023-03-14T06:53:36;99014.91;;;7.99;100.00
71716;BME280;59568;52.128;5.434;2023-03-14T06:56:03;99012.63;;;7.89;100.00
71716;BME280;59568;52.128;5.434;2023-03-14T06:58:30;99024.00;;;7.76;100.00
71716;BME280;59568;52.128;5.434;2023-03-14T07:00:57;99033.97;;;7.65;100.00
71716;BME280;59568;52.128;5.434;2023-03-14T07:03:24;99054.47;;;7.58;100.00
71716;BME280;59568;52.128;5.434;2023-03-14T07:05:51;99046.84;;;7.53;100.00
71716;BME280;59568;52.128;5.434;2023-03-14T07:08:17;99047.28;;;7.46;100.00
71716;BME280;59568;52.128;5.434;2023-03-14T07:10:44;99061.22;;;7.42;100.00
71716;BME280;59568;52.128;5.434;2023-03-14T07:13:11;99062.44;;;7.35;100.00
71716;BME280;59568;52.128;5.434;2023-03-14T07:15:37;99066.72;;;7.31;100.00
71716;BME280;59568;52.128;5.434;2023-03-14T07:18:04;99080.94;;;7.25;100.00
71716;BME280;59568;52.128;5.434;2023-03-14T07:20:31;99087.19;;;7.24;100.00
71716;BME280;59568;52.128;5.434;2023-03-14T07:22:58;99094.22;;;7.15;100.00
71716;BME280;59568;52.128;5.434;2023-03-14T07:25:29;99101.84;;;7.11;100.00
71716;BME280;59568;52.128;5.434;2023-03-14T07:27:56;99113.91;;;7.07;100.00
71716;BME280;59568;52.128;5.434;2023-03-14T07:30:22;99132.84;;;6.99;100.00
71716;BME280;59568;52.128;5.434;2023-03-14T07:32:49;99135.28;;;6.95;100.00
71716;BME280;59568;52.128;5.434;2023-03-14T07:35:16;99153.75;;;6.94;100.00
71716;BME280;59568;52.128;5.434;2023-03-14T07:37:42;99160.63;;;6.90;100.00
71716;BME280;59568;52.128;5.434;2023-03-14T07:40:09;99165.66;;;6.86;100.00
71716;BME280;59568;52.128;5.434;2023-03-14T07:42:38;99184.72;;;6.82;100.00
71716;BME280;59568;52.128;5.434;2023-03-14T07:45:05;99189.59;;;6.74;100.00
71716;BME280;59568;52.128;5.434;2023-03-14T07:47:33;99196.00;;;6.68;100.00
71716;BME280;59568;52.128;5.434;2023-03-14T07:49:59;99206.38;;;6.68;100.00
71716;BME280;59568;52.128;5.434;2023-03-14T07:52:26;99214.16;;;6.68;100.00
71716;BME280;59568;52.128;5.434;2023-03-14T07:54:55;99231.41;;;6.64;100.00
71716;BME280;59568;52.128;5.434;2023-03-14T07:57:22;99245.41;;;6.63;100.00
71716;BME280;59568;52.128;5.434;2023-03-14T07:59:49;99253.50;;;6.62;100.00
71716;BME280;59568;52.128;5.434;2023-03-14T08:02:15;99251.50;;;6.58;100.00
71716;BME280;59568;52.128;5.434;2023-03-14T08:04:42;99277.28;;;6.55;100.00
71716;BME280;59568;52.128;5.434;2023-03-14T08:07:09;99310.53;;;6.30;100.00
71716;BME280;59568;52.128;5.434;2023-03-14T08:09:36;99329.66;;;5.98;100.00
71716;BME280;59568;52.128;5.434;2023-03-14T08:12:02;99342.31;;;5.72;100.00
71716;BME280;59568;52.128;5.434;2023-03-14T08:14:29;99334.81;;;5.43;100.00
71716;BME280;59568;52.128;5.434;2023-03-14T08:16:57;99359.56;;;5.35;100.00
71716;BME280;59568;52.128;5.434;2023-03-14T08:19:23;99365.13;;;5.28;100.00
71716;BME280;59568;52.128;5.434;2023-03-14T08:21:50;99378.00;;;5.33;100.00
71716;BME280;59568;52.128;5.434;2023-03-14T08:24:17;99393.34;;;5.30;100.00
71716;BME280;59568;52.128;5.434;2023-03-14T08:26:44;99402.53;;;5.22;100.00
71716;BME280;59568;52.128;5.434;2023-03-14T08:29:10;99412.28;;;5.11;100.00
71716;BME280;59568;52.128;5.434;2023-03-14T08:31:39;99419.22;;;4.97;100.00
71716;BME280;59568;52.128;5.434;2023-03-14T08:34:05;99418.72;;;4.95;100.00
71716;BME280;59568;52.128;5.434;2023-03-14T08:36:33;99441.06;;;4.91;100.00
71716;BME280;59568;52.128;5.434;2023-03-14T08:39:00;99450.38;;;4.92;100.00
71716;BME280;59568;52.128;5.434;2023-03-14T08:41:26;99466.50;;;5.03;100.00
71716;BME280;59568;52.128;5.434;2023-03-14T08:43:53;99462.25;;;5.12;100.00
71716;BME280;59568;52.128;5.434;2023-03-14T08:46:19;99486.75;;;5.19;100.00
71716;BME280;59568;52.128;5.434;2023-03-14T08:48:47;99496.72;;;5.26;100.00
71716;BME280;59568;52.128;5.434;2023-03-14T08:51:13;99510.16;;;5.28;100.00
71716;BME280;59568;52.128;5.434;2023-03-14T08:53:41;99512.47;;;5.30;100.00
71716;BME280;59568;52.128;5.434;2023-03-14T08:56:08;99530.88;;;5.28;100.00
71716;BME280;59568;52.128;5.434;2023-03-14T08:58:36;99534.31;;;5.24;100.00
71716;BME280;59568;52.128;5.434;2023-03-14T09:01:08;99554.41;;;5.13;100.00
71716;BME280;59568;52.128;5.434;2023-03-14T09:03:35;99563.16;;;5.17;100.00
71716;BME280;59568;52.128;5.434;2023-03-14T09:06:07;99566.28;;;5.33;100.00
71716;BME280;59568;52.128;5.434;2023-03-14T09:08:34;99581.19;;;5.41;100.00
71716;BME280;59568;52.128;5.434;2023-03-14T09:11:07;99588.22;;;5.40;100.00
71716;BME280;59568;52.128;5.434;2023-03-14T09:13:34;99603.59;;;5.51;100.00
71716;BME280;59568;52.128;5.434;2023-03-14T09:16:01;99616.16;;;5.44;100.00
71716;BME280;59568;52.128;5.434;2023-03-14T09:18:28;99617.81;;;5.34;100.00
71716;BME280;59568;52.128;5.434;2023-03-14T09:20:55;99629.25;;;5.33;100.00
71716;BME280;59568;52.128;5.434;2023-03-14T09:23:22;99631.63;;;5.30;100.00
71716;BME280;59568;52.128;5.434;2023-03-14T09:25:49;99655.44;;;5.32;100.00
71716;BME280;59568;52.128;5.434;2023-03-14T09:28:16;99653.47;;;5.24;100.00
71716;BME280;59568;52.128;5.434;2023-03-14T09:30:43;99661.44;;;5.27;100.00
71716;BME280;59568;52.128;5.434;2023-03-14T09:33:10;99665.91;;;5.22;100.00
71716;BME280;59568;52.128;5.434;2023-03-14T09:35:36;99676.69;;;5.29;100.00
71716;BME280;59568;52.128;5.434;2023-03-14T09:38:03;99688.47;;;5.40;100.00
71716;BME280;59568;52.128;5.434;2023-03-14T09:40:35;99693.88;;;5.44;100.00
71716;BME280;59568;52.128;5.434;2023-03-14T09:43:03;99709.69;;;5.42;100.00
71716;BME280;59568;52.128;5.434;2023-03-14T09:45:36;99723.91;;;5.45;100.00
71716;BME280;59568;52.128;5.434;2023-03-14T09:48:04;99728.44;;;5.34;100.00
71716;BME280;59568;52.128;5.434;2023-03-14T09:50:48;99733.84;;;5.37;100.00
71716;BME280;59568;52.128;5.434;2023-03-14T09:53:21;99745.91;;;5.47;100.00
71716;BME280;59568;52.128;5.434;2023-03-14T09:55:50;99756.22;;;5.52;100.00
71716;BME280;59568;52.128;5.434;2023-03-14T09:58:24;99759.03;;;5.56;100.00
71716;BME280;59568;52.128;5.434;2023-03-14T10:00:54;99771.97;;;5.56;100.00
71716;BME280;59568;52.128;5.434;2023-03-14T10:05:55;99783.59;;;5.58;100.00
71716;BME280;59568;52.128;5.434;2023-03-14T10:08:22;99790.03;;;5.61;100.00
71716;BME280;59568;52.128;5.434;2023-03-14T10:10:49;99796.66;;;5.72;100.00
71716;BME280;59568;52.128;5.434;2023-03-14T10:13:24;99815.94;;;5.85;100.00
71716;BME280;59568;52.128;5.434;2023-03-14T10:16:03;99828.13;;;5.85;100.00
71716;BME280;59568;52.128;5.434;2023-03-14T10:18:33;99826.50;;;5.70;100.00
71716;BME280;59568;52.128;5.434;2023-03-14T10:21:06;99850.75;;;5.55;100.00
71716;BME280;59568;52.128;5.434;2023-03-14T10:23:34;99857.38;;;5.42;100.00
71716;BME280;59568;52.128;5.434;2023-03-14T10:26:12;99875.41;;;5.52;100.00
71716;BME280;59568;52.128;5.434;2023-03-14T10:28:41;99890.34;;;5.60;100.00
71716;BME280;59568;52.128;5.434;2023-03-14T10:31:09;99902.66;;;5.74;100.00
71716;BME280;59568;52.128;5.434;2023-03-14T10:33:37;99897.31;;;5.89;100.00
71716;BME280;59568;52.128;5.434;2023-03-14T10:38:35;99926.69;;;6.09;100.00
71716;BME280;59568;52.128;5.434;2023-03-14T10:41:15;99933.47;;;6.05;100.00
71716;BME280;59568;52.128;5.434;2023-03-14T10:43:42;99939.19;;;6.02;100.00
71716;BME280;59568;52.128;5.434;2023-03-14T10:46:15;99953.72;;;6.03;100.00
71716;BME280;59568;52.128;5.434;2023-03-14T10:48:43;99974.47;;;6.03;100.00
71716;BME280;59568;52.128;5.434;2023-03-14T10:53:47;99997.38;;;5.90;100.00
71716;BME280;59568;52.128;5.434;2023-03-14T10:56:17;100021.69;;;5.99;100.00
71716;BME280;59568;52.128;5.434;2023-03-14T10:58:57;100019.41;;;5.98;100.00
71716;BME280;59568;52.128;5.434;2023-03-14T11:04:29;100037.47;;;5.74;100.00
71716;BME280;59568;52.128;5.434;2023-03-14T11:07:24;100046.53;;;5.71;100.00
71716;BME280;59568;52.128;5.434;2023-03-14T11:10:03;100055.06;;;5.77;100.00
71716;BME280;59568;52.128;5.434;2023-03-14T11:15:43;100085.41;;;5.76;100.00
71716;BME280;59568;52.128;5.434;2023-03-14T11:29:40;100121.28;;;6.81;100.00
71716;BME280;59568;52.128;5.434;2023-03-14T11:32:29;100128.31;;;7.24;98.58
71716;BME280;59568;52.128;5.434;2023-03-14T11:35:04;100137.34;;;7.07;98.93
71716;BME280;59568;52.128;5.434;2023-03-14T11:37:47;100147.03;;;6.77;95.45
71716;BME280;59568;52.128;5.434;2023-03-14T11:40:23;100150.72;;;6.71;97.77
71716;BME280;59568;52.128;5.434;2023-03-14T11:43:09;100158.09;;;6.88;97.86
71716;BME280;59568;52.128;5.434;2023-03-14T11:45:42;100177.63;;;7.29;98.57
71716;BME280;59568;52.128;5.434;2023-03-14T11:48:32;100166.25;;;7.44;93.48
71716;BME280;59568;52.128;5.434;2023-03-14T11:51:07;100183.06;;;7.51;95.04
71716;BME280;59568;52.128;5.434;2023-03-14T11:53:47;100194.13;;;7.38;91.01
71716;BME280;59568;52.128;5.434;2023-03-14T11:56:44;100187.69;;;7.54;92.46
71716;BME280;59568;52.128;5.434;2023-03-14T11:59:26;100217.06;;;7.55;88.63
71716;BME280;59568;52.128;5.434;2023-03-14T12:10:18;100219.88;;;7.58;83.64
71716;BME280;59568;52.128;5.434;2023-03-14T12:12:44;100236.34;;;7.30;83.08
71716;BME280;59568;52.128;5.434;2023-03-14T12:15:20;100237.81;;;7.36;83.97
71716;BME280;59568;52.128;5.434;2023-03-14T12:17:53;100223.47;;;7.63;84.84
71716;BME280;59568;52.128;5.434;2023-03-14T12:20:23;100263.66;;;7.70;75.70
71716;BME280;59568;52.128;5.434;2023-03-14T12:25:21;100263.75;;;7.84;76.64
71716;BME280;59568;52.128;5.434;2023-03-14T12:30:39;100280.66;;;8.06;75.33
71716;BME280;59568;52.128;5.434;2023-03-14T12:35:43;100276.03;;;7.78;70.58
71716;BME280;59568;52.128;5.434;2023-03-14T12:41:02;100279.63;;;7.64;70.91
71716;BME280;59568;52.128;5.434;2023-03-14T12:43:31;100291.97;;;7.96;68.53
71716;BME280;59568;52.128;5.434;2023-03-14T12:46:20;100288.09;;;8.31;68.97
71716;BME280;59568;52.128;5.434;2023-03-14T12:49:10;100296.16;;;8.68;66.63
71716;BME280;59568;52.128;5.434;2023-03-14T12:51:41;100296.47;;;8.80;64.74
71716;BME280;59568;52.128;5.434;2023-03-14T12:57:28;100304.41;;;8.89;61.43
71716;BME280;59568;52.128;5.434;2023-03-14T13:00:02;100316.72;;;8.50;60.08
71716;BME280;59568;52.128;5.434;2023-03-14T13:02:43;100331.34;;;7.89;59.91
71716;BME280;59568;52.128;5.434;2023-03-14T13:05:18;100340.50;;;7.63;60.26
71716;BME280;59568;52.128;5.434;2023-03-14T13:10:22;100356.59;;;7.89;61.31
71716;BME280;59568;52.128;5.434;2023-03-14T13:15:39;100367.50;;;8.29;58.98
71716;BME280;59568;52.128;5.434;2023-03-14T13:20:41;100381.69;;;8.42;57.77
71716;BME280;59568;52.128;5.434;2023-03-14T13:23:24;100377.41;;;8.51;57.25
71716;BME280;59568;52.128;5.434;2023-03-14T13:25:51;100388.72;;;8.60;55.88
71716;BME280;59568;52.128;5.434;2023-03-14T13:28:18;100395.84;;;8.73;54.48
71716;BME280;59568;52.128;5.434;2023-03-14T13:30:47;100403.38;;;8.56;53.16
71716;BME280;59568;52.128;5.434;2023-03-14T13:33:21;100403.16;;;8.52;54.06
71716;BME280;59568;52.128;5.434;2023-03-14T13:35:59;100409.47;;;8.27;54.22
71716;BME280;59568;52.128;5.434;2023-03-14T13:38:28;100418.56;;;8.49;54.09
71716;BME280;59568;52.128;5.434;2023-03-14T13:40:58;100429.91;;;8.58;53.95
71716;BME280;59568;52.128;5.434;2023-03-14T13:43:29;100428.31;;;8.38;54.34
71716;BME280;59568;52.128;5.434;2023-03-14T13:46:21;100451.09;;;8.70;55.08
71716;BME280;59568;52.128;5.434;2023-03-14T13:48:56;100445.09;;;8.89;54.14
71716;BME280;59568;52.128;5.434;2023-03-14T13:51:23;100460.97;;;8.73;52.66
71716;BME280;59568;52.128;5.434;2023-03-14T13:53:54;100462.00;;;8.29;53.19
71716;BME280;59568;52.128;5.434;2023-03-14T13:56:22;100466.91;;;8.31;54.30
71716;BME280;59568;52.128;5.434;2023-03-14T13:58:49;100468.94;;;8.15;53.15
71716;BME280;59568;52.128;5.434;2023-03-14T14:01:23;100484.72;;;7.99;55.15
71716;BME280;59568;52.128;5.434;2023-03-14T14:03:52;100482.50;;;8.12;55.83
71716;BME280;59568;52.128;5.434;2023-03-14T14:06:30;100501.81;;;8.06;55.41
71716;BME280;59568;52.128;5.434;2023-03-14T14:09:01;100499.38;;;7.90;57.91
71716;BME280;59568;52.128;5.434;2023-03-14T14:14:19;100516.28;;;7.93;58.22
71716;BME280;59568;52.128;5.434;2023-03-14T14:16:48;100524.25;;;8.02;58.95
71716;BME280;59568;52.128;5.434;2023-03-14T14:19:19;100536.09;;;8.13;57.68
71716;BME280;59568;52.128;5.434;2023-03-14T14:21:48;100536.63;;;7.86;56.95